sensor_id;sensor_type;location;lat;lon;timestamp;temperature;humidity
16038;DHT22;8123;50.906;6.172;2023-02-13T00:00:33;4.10;99.90
16038;DHT22;8123;50.906;6.172;2023-02-13T00:03:00;4.20;99.90
16038;DHT22;8123;50.906;6.172;2023-02-13T00:05:25;4.00;99.90
16038;DHT22;8123;50.906;6.172;2023-02-13T00:07:51;4.10;99.90
16038;DHT22;8123;50.906;6.172;2023-02-13T00:10:16;4.00;99.90
16038;DHT22;8123;50.906;6.172;2023-02-13T00:12:42;4.00;99.90
16038;DHT22;8123;50.906;6.172;2023-02-13T00:15:08;4.20;99.90
16038;DHT22;8123;50.906;6.172;2023-02-13T00:17:34;4.10;99.90
16038;DHT22;8123;50.906;6.172;2023-02-13T00:20:00;4.10;99.90
16038;DHT22;8123;50.906;6.172;2023-02-13T00:22:26;4.10;99.90
16038;DHT22;8123;50.906;6.172;2023-02-13T00:24:51;4.10;99.90
16038;DHT22;8123;50.906;6.172;2023-02-13T00:27:17;4.10;99.90
16038;DHT22;8123;50.906;6.172;2023-02-13T00:29:43;4.20;99.90
16038;DHT22;8123;50.906;6.172;2023-02-13T00:32:09;4.10;99.90
16038;DHT22;8123;50.906;6.172;2023-02-13T00:34:34;4.50;99.90
16038;DHT22;8123;50.906;6.172;2023-02-13T00:37:01;4.20;99.90
16038;DHT22;8123;50.906;6.172;2023-02-13T00:39:26;4.40;99.90
16038;DHT22;8123;50.906;6.172;2023-02-13T00:41:52;4.30;99.90
16038;DHT22;8123;50.906;6.172;2023-02-13T00:44:18;4.60;99.90
16038;DHT22;8123;50.906;6.172;2023-02-13T00:46:43;4.30;99.90
16038;DHT22;8123;50.906;6.172;2023-02-13T00:49:09;4.70;99.90
16038;DHT22;8123;50.906;6.172;2023-02-13T00:51:34;4.30;99.90
16038;DHT22;8123;50.906;6.172;2023-02-13T00:54:00;4.30;99.90
16038;DHT22;8123;50.906;6.172;2023-02-13T00:56:26;4.70;99.90
16038;DHT22;8123;50.906;6.172;2023-02-13T00:58:52;4.40;99.90
16038;DHT22;8123;50.906;6.172;2023-02-13T01:01:17;4.80;99.90
16038;DHT22;8123;50.906;6.172;2023-02-13T01:03:43;4.40;99.90
16038;DHT22;8123;50.906;6.172;2023-02-13T01:06:09;4.40;99.90
16038;DHT22;8123;50.906;6.172;2023-02-13T01:08:38;4.80;99.90
16038;DHT22;8123;50.906;6.172;2023-02-13T01:11:04;4.80;99.90
16038;DHT22;8123;50.906;6.172;2023-02-13T01:13:30;4.40;99.90
16038;DHT22;8123;50.906;6.172;2023-02-13T01:15:56;4.40;99.90
16038;DHT22;8123;50.906;6.172;2023-02-13T01:18:21;4.70;99.90
16038;DHT22;8123;50.906;6.172;2023-02-13T01:23:22;4.30;99.90
16038;DHT22;8123;50.906;6.172;2023-02-13T01:25:48;4.30;99.90
16038;DHT22;8123;50.906;6.172;2023-02-13T01:28:16;4.60;99.90
16038;DHT22;8123;50.906;6.172;2023-02-13T01:30:41;4.40;99.90
16038;DHT22;8123;50.906;6.172;2023-02-13T01:33:10;4.40;99.90
16038;DHT22;8123;50.906;6.172;2023-02-13T01:35:38;4.40;99.90
16038;DHT22;8123;50.906;6.172;2023-02-13T01:38:04;4.40;99.90
16038;DHT22;8123;50.906;6.172;2023-02-13T01:40:30;4.00;99.90
16038;DHT22;8123;50.906;6.172;2023-02-13T01:42:56;4.30;99.90
16038;DHT22;8123;50.906;6.172;2023-02-13T01:45:26;4.00;99.90
16038;DHT22;8123;50.906;6.172;2023-02-13T01:48:05;4.00;99.90
16038;DHT22;8123;50.906;6.172;2023-02-13T01:50:36;4.00;99.90
16038;DHT22;8123;50.906;6.172;2023-02-13T01:53:06;4.30;99.90
16038;DHT22;8123;50.906;6.172;2023-02-13T01:55:34;4.20;99.90
16038;DHT22;8123;50.906;6.172;2023-02-13T01:58:06;4.00;99.90
16038;DHT22;8123;50.906;6.172;2023-02-13T02:00:33;4.30;99.90
16038;DHT22;8123;50.906;6.172;2023-02-13T02:03:08;4.10;99.90
16038;DHT22;8123;50.906;6.172;2023-02-13T02:05:35;3.90;99.90
16038;DHT22;8123;50.906;6.172;2023-02-13T02:08:03;4.30;99.90
16038;DHT22;8123;50.906;6.172;2023-02-13T02:10:30;3.90;99.90
16038;DHT22;8123;50.906;6.172;2023-02-13T02:13:12;4.20;99.90
16038;DHT22;8123;50.906;6.172;2023-02-13T02:15:38;3.90;99.90
16038;DHT22;8123;50.906;6.172;2023-02-13T02:18:19;4.20;99.90
16038;DHT22;8123;50.906;6.172;2023-02-13T02:29:36;3.90;99.90
16038;DHT22;8123;50.906;6.172;2023-02-13T02:32:23;3.80;99.90
16038;DHT22;8123;50.906;6.172;2023-02-13T02:35:12;3.80;99.90
16038;DHT22;8123;50.906;6.172;2023-02-13T02:46:03;3.80;99.90
16038;DHT22;8123;50.906;6.172;2023-02-13T02:48:32;3.90;99.90
16038;DHT22;8123;50.906;6.172;2023-02-13T02:51:26;3.90;99.90
16038;DHT22;8123;50.906;6.172;2023-02-13T02:54:26;3.90;99.90
16038;DHT22;8123;50.906;6.172;2023-02-13T02:57:20;4.00;99.90
16038;DHT22;8123;50.906;6.172;2023-02-13T02:59:48;3.90;99.90
16038;DHT22;8123;50.906;6.172;2023-02-13T03:02:33;4.00;99.90
16038;DHT22;8123;50.906;6.172;2023-02-13T03:05:24;4.00;99.90
16038;DHT22;8123;50.906;6.172;2023-02-13T03:08:11;4.00;99.90
16038;DHT22;8123;50.906;6.172;2023-02-13T03:10:37;4.00;99.90
16038;DHT22;8123;50.906;6.172;2023-02-13T03:13:48;4.00;99.90
16038;DHT22;8123;50.906;6.172;2023-02-13T03:16:24;3.90;99.90
16038;DHT22;8123;50.906;6.172;2023-02-13T03:19:26;4.30;99.90
16038;DHT22;8123;50.906;6.172;2023-02-13T03:28:00;4.10;99.90
16038;DHT22;8123;50.906;6.172;2023-02-13T03:33:57;3.90;99.90
16038;DHT22;8123;50.906;6.172;2023-02-13T03:41:57;3.70;99.90
16038;DHT22;8123;50.906;6.172;2023-02-13T03:44:48;3.60;99.90
16038;DHT22;8123;50.906;6.172;2023-02-13T03:47:37;3.50;99.90
16038;DHT22;8123;50.906;6.172;2023-02-13T03:50:05;3.40;99.90
16038;DHT22;8123;50.906;6.172;2023-02-13T03:53:13;3.30;99.90
16038;DHT22;8123;50.906;6.172;2023-02-13T03:55:42;3.20;99.90
16038;DHT22;8123;50.906;6.172;2023-02-13T03:58:35;3.10;99.90
16038;DHT22;8123;50.906;6.172;2023-02-13T04:01:25;3.70;99.90
16038;DHT22;8123;50.906;6.172;2023-02-13T04:03:58;3.10;99.90
16038;DHT22;8123;50.906;6.172;2023-02-13T04:06:31;3.00;99.90
16038;DHT22;8123;50.906;6.172;2023-02-13T04:08:58;3.00;99.90
16038;DHT22;8123;50.906;6.172;2023-02-13T04:11:25;3.00;99.90
16038;DHT22;8123;50.906;6.172;2023-02-13T04:13:56;2.90;99.90
16038;DHT22;8123;50.906;6.172;2023-02-13T04:16:38;2.80;99.90
16038;DHT22;8123;50.906;6.172;2023-02-13T04:19:05;2.80;99.90
16038;DHT22;8123;50.906;6.172;2023-02-13T04:21:38;2.80;99.90
16038;DHT22;8123;50.906;6.172;2023-02-13T04:24:05;2.70;99.90
16038;DHT22;8123;50.906;6.172;2023-02-13T04:26:37;2.70;99.90
16038;DHT22;8123;50.906;6.172;2023-02-13T04:29:03;2.70;99.90
16038;DHT22;8123;50.906;6.172;2023-02-13T04:31:29;2.80;99.90
16038;DHT22;8123;50.906;6.172;2023-02-13T04:33:55;2.70;99.90
16038;DHT22;8123;50.906;6.172;2023-02-13T04:36:20;2.70;99.90
16038;DHT22;8123;50.906;6.172;2023-02-13T04:38:46;2.60;99.90
16038;DHT22;8123;50.906;6.172;2023-02-13T04:41:12;2.60;99.90
16038;DHT22;8123;50.906;6.172;2023-02-13T04:43:37;2.60;99.90
16038;DHT22;8123;50.906;6.172;2023-02-13T04:46:03;2.50;99.90
16038;DHT22;8123;50.906;6.172;2023-02-13T04:48:29;2.50;99.90
16038;DHT22;8123;50.906;6.172;2023-02-13T04:50:54;2.50;99.90
16038;DHT22;8123;50.906;6.172;2023-02-13T04:53:20;2.40;99.90
16038;DHT22;8123;50.906;6.172;2023-02-13T04:55:46;2.50;99.90
16038;DHT22;8123;50.906;6.172;2023-02-13T04:58:11;2.40;99.90
16038;DHT22;8123;50.906;6.172;2023-02-13T05:00:37;2.40;99.90
16038;DHT22;8123;50.906;6.172;2023-02-13T05:03:07;2.50;99.90
16038;DHT22;8123;50.906;6.172;2023-02-13T05:05:34;2.40;99.90
16038;DHT22;8123;50.906;6.172;2023-02-13T05:08:00;2.40;99.90
16038;DHT22;8123;50.906;6.172;2023-02-13T05:10:26;2.30;99.90
16038;DHT22;8123;50.906;6.172;2023-02-13T05:12:51;2.30;99.90
16038;DHT22;8123;50.906;6.172;2023-02-13T05:15:17;2.50;99.90
16038;DHT22;8123;50.906;6.172;2023-02-13T05:17:43;2.20;99.90
16038;DHT22;8123;50.906;6.172;2023-02-13T05:20:10;2.10;99.90
16038;DHT22;8123;50.906;6.172;2023-02-13T05:22:36;2.20;99.90
16038;DHT22;8123;50.906;6.172;2023-02-13T05:25:20;2.10;99.90
16038;DHT22;8123;50.906;6.172;2023-02-13T05:27:46;2.10;99.90
16038;DHT22;8123;50.906;6.172;2023-02-13T05:30:12;2.10;99.90
16038;DHT22;8123;50.906;6.172;2023-02-13T05:32:38;2.10;99.90
16038;DHT22;8123;50.906;6.172;2023-02-13T05:35:04;2.10;99.90
16038;DHT22;8123;50.906;6.172;2023-02-13T05:37:30;2.00;99.90
16038;DHT22;8123;50.906;6.172;2023-02-13T05:39:56;2.00;99.90
16038;DHT22;8123;50.906;6.172;2023-02-13T05:42:21;2.00;99.90
16038;DHT22;8123;50.906;6.172;2023-02-13T05:44:47;2.00;99.90
16038;DHT22;8123;50.906;6.172;2023-02-13T05:47:13;2.00;99.90
16038;DHT22;8123;50.906;6.172;2023-02-13T05:49:38;1.90;99.90
16038;DHT22;8123;50.906;6.172;2023-02-13T05:52:04;1.90;99.90
16038;DHT22;8123;50.906;6.172;2023-02-13T05:54:29;1.90;99.90
16038;DHT22;8123;50.906;6.172;2023-02-13T05:56:55;1.90;99.90
16038;DHT22;8123;50.906;6.172;2023-02-13T05:59:20;1.90;99.90
16038;DHT22;8123;50.906;6.172;2023-02-13T06:01:46;1.90;99.90
16038;DHT22;8123;50.906;6.172;2023-02-13T06:04:12;1.90;99.90
16038;DHT22;8123;50.906;6.172;2023-02-13T06:06:37;1.90;99.90
16038;DHT22;8123;50.906;6.172;2023-02-13T06:09:03;1.90;99.90
16038;DHT22;8123;50.906;6.172;2023-02-13T06:11:29;1.90;99.90
16038;DHT22;8123;50.906;6.172;2023-02-13T06:13:55;2.00;99.90
16038;DHT22;8123;50.906;6.172;2023-02-13T06:16:20;1.90;99.90
16038;DHT22;8123;50.906;6.172;2023-02-13T06:18:47;1.90;99.90
16038;DHT22;8123;50.906;6.172;2023-02-13T06:21:12;1.90;99.90
16038;DHT22;8123;50.906;6.172;2023-02-13T06:23:38;2.00;99.90
16038;DHT22;8123;50.906;6.172;2023-02-13T06:26:06;2.00;99.90
16038;DHT22;8123;50.906;6.172;2023-02-13T06:28:32;2.00;99.90
16038;DHT22;8123;50.906;6.172;2023-02-13T06:30:57;2.00;99.90
16038;DHT22;8123;50.906;6.172;2023-02-13T06:33:23;1.90;99.90
16038;DHT22;8123;50.906;6.172;2023-02-13T06:35:49;1.90;99.90
16038;DHT22;8123;50.906;6.172;2023-02-13T06:38:15;2.00;99.90
16038;DHT22;8123;50.906;6.172;2023-02-13T06:40:47;1.90;99.90
16038;DHT22;8123;50.906;6.172;2023-02-13T06:43:13;1.90;99.90
16038;DHT22;8123;50.906;6.172;2023-02-13T06:45:39;1.90;99.90
16038;DHT22;8123;50.906;6.172;2023-02-13T06:48:05;2.00;99.90
16038;DHT22;8123;50.906;6.172;2023-02-13T06:50:31;2.00;99.90
16038;DHT22;8123;50.906;6.172;2023-02-13T06:52:56;2.10;99.90
16038;DHT22;8123;50.906;6.172;2023-02-13T06:55:22;2.10;99.90
16038;DHT22;8123;50.906;6.172;2023-02-13T06:57:48;2.10;99.90
16038;DHT22;8123;50.906;6.172;2023-02-13T07:00:15;2.10;99.90
16038;DHT22;8123;50.906;6.172;2023-02-13T07:02:43;2.10;99.90
16038;DHT22;8123;50.906;6.172;2023-02-13T07:05:09;2.20;99.90
16038;DHT22;8123;50.906;6.172;2023-02-13T07:07:36;2.20;99.90
16038;DHT22;8123;50.906;6.172;2023-02-13T07:10:04;2.30;99.90
16038;DHT22;8123;50.906;6.172;2023-02-13T07:12:32;2.40;99.90
16038;DHT22;8123;50.906;6.172;2023-02-13T07:14:58;2.70;99.90
16038;DHT22;8123;50.906;6.172;2023-02-13T07:17:23;2.50;99.90
16038;DHT22;8123;50.906;6.172;2023-02-13T07:19:50;2.60;99.90
16038;DHT22;8123;50.906;6.172;2023-02-13T07:22:16;2.60;99.90
16038;DHT22;8123;50.906;6.172;2023-02-13T07:24:41;3.00;99.90
16038;DHT22;8123;50.906;6.172;2023-02-13T07:27:07;2.70;99.90
16038;DHT22;8123;50.906;6.172;2023-02-13T07:29:32;2.70;99.90
16038;DHT22;8123;50.906;6.172;2023-02-13T07:31:58;2.70;99.90
16038;DHT22;8123;50.906;6.172;2023-02-13T07:34:24;3.30;99.90
16038;DHT22;8123;50.906;6.172;2023-02-13T07:36:50;3.30;99.90
16038;DHT22;8123;50.906;6.172;2023-02-13T07:39:16;3.00;99.90
16038;DHT22;8123;50.906;6.172;2023-02-13T07:41:42;3.50;99.90
16038;DHT22;8123;50.906;6.172;2023-02-13T07:44:07;3.70;99.90
16038;DHT22;8123;50.906;6.172;2023-02-13T07:46:33;3.20;99.90
16038;DHT22;8123;50.906;6.172;2023-02-13T07:48:59;3.20;99.90
16038;DHT22;8123;50.906;6.172;2023-02-13T07:51:24;3.70;99.90
16038;DHT22;8123;50.906;6.172;2023-02-13T07:53:51;3.40;99.90
16038;DHT22;8123;50.906;6.172;2023-02-13T07:56:18;3.50;99.90
16038;DHT22;8123;50.906;6.172;2023-02-13T07:58:44;3.80;99.90
16038;DHT22;8123;50.906;6.172;2023-02-13T08:01:12;3.80;99.90
16038;DHT22;8123;50.906;6.172;2023-02-13T08:03:38;4.00;99.90
16038;DHT22;8123;50.906;6.172;2023-02-13T08:06:04;3.80;99.90
16038;DHT22;8123;50.906;6.172;2023-02-13T08:08:31;3.70;99.90
16038;DHT22;8123;50.906;6.172;2023-02-13T08:11:01;3.80;99.90
16038;DHT22;8123;50.906;6.172;2023-02-13T08:13:46;3.80;99.90
16038;DHT22;8123;50.906;6.172;2023-02-13T08:16:13;3.80;99.90
16038;DHT22;8123;50.906;6.172;2023-02-13T08:18:40;4.10;99.90
16038;DHT22;8123;50.906;6.172;2023-02-13T08:21:06;4.20;99.90
16038;DHT22;8123;50.906;6.172;2023-02-13T08:23:31;3.90;99.90
16038;DHT22;8123;50.906;6.172;2023-02-13T08:26:01;4.40;99.90
16038;DHT22;8123;50.906;6.172;2023-02-13T08:28:28;4.10;99.90
16038;DHT22;8123;50.906;6.172;2023-02-13T08:30:54;4.10;99.90
16038;DHT22;8123;50.906;6.172;2023-02-13T08:33:20;4.20;99.90
16038;DHT22;8123;50.906;6.172;2023-02-13T08:35:45;4.30;99.90
16038;DHT22;8123;50.906;6.172;2023-02-13T08:38:11;4.50;99.90
16038;DHT22;8123;50.906;6.172;2023-02-13T08:40:37;4.70;99.90
16038;DHT22;8123;50.906;6.172;2023-02-13T08:43:04;4.40;99.90
16038;DHT22;8123;50.906;6.172;2023-02-13T08:45:31;4.40;99.90
16038;DHT22;8123;50.906;6.172;2023-02-13T08:47:58;4.80;99.90
16038;DHT22;8123;50.906;6.172;2023-02-13T08:50:24;4.70;99.90
16038;DHT22;8123;50.906;6.172;2023-02-13T08:52:50;4.60;99.90
16038;DHT22;8123;50.906;6.172;2023-02-13T08:55:16;4.60;99.90
16038;DHT22;8123;50.906;6.172;2023-02-13T08:57:42;4.80;99.90
16038;DHT22;8123;50.906;6.172;2023-02-13T09:00:08;4.70;99.90
16038;DHT22;8123;50.906;6.172;2023-02-13T09:02:34;4.70;99.90
16038;DHT22;8123;50.906;6.172;2023-02-13T09:04:59;4.90;99.90
16038;DHT22;8123;50.906;6.172;2023-02-13T09:07:25;5.20;99.90
16038;DHT22;8123;50.906;6.172;2023-02-13T09:09:51;4.90;99.90
16038;DHT22;8123;50.906;6.172;2023-02-13T09:12:16;5.00;99.90
16038;DHT22;8123;50.906;6.172;2023-02-13T09:14:42;5.00;99.90
16038;DHT22;8123;50.906;6.172;2023-02-13T09:17:11;5.20;99.90
16038;DHT22;8123;50.906;6.172;2023-02-13T09:19:36;5.30;99.90
16038;DHT22;8123;50.906;6.172;2023-02-13T09:22:02;5.20;99.90
16038;DHT22;8123;50.906;6.172;2023-02-13T09:24:27;5.20;99.90
16038;DHT22;8123;50.906;6.172;2023-02-13T09:26:53;5.40;99.90
16038;DHT22;8123;50.906;6.172;2023-02-13T09:29:20;5.40;99.90
16038;DHT22;8123;50.906;6.172;2023-02-13T09:31:46;5.50;99.90
16038;DHT22;8123;50.906;6.172;2023-02-13T09:34:12;5.50;99.90
16038;DHT22;8123;50.906;6.172;2023-02-13T09:36:38;5.50;99.90
16038;DHT22;8123;50.906;6.172;2023-02-13T09:39:03;5.90;99.90
16038;DHT22;8123;50.906;6.172;2023-02-13T09:41:38;6.10;99.90
16038;DHT22;8123;50.906;6.172;2023-02-13T09:44:35;5.70;99.90
16038;DHT22;8123;50.906;6.172;2023-02-13T09:49:35;6.00;99.90
16038;DHT22;8123;50.906;6.172;2023-02-13T09:52:01;6.20;99.90
16038;DHT22;8123;50.906;6.172;2023-02-13T09:54:27;6.00;99.90
16038;DHT22;8123;50.906;6.172;2023-02-13T10:02:34;6.30;99.90
16038;DHT22;8123;50.906;6.172;2023-02-13T10:05:47;6.30;99.90
16038;DHT22;8123;50.906;6.172;2023-02-13T10:12:01;6.50;99.90
16038;DHT22;8123;50.906;6.172;2023-02-13T10:14:59;6.50;99.90
16038;DHT22;8123;50.906;6.172;2023-02-13T10:17:33;6.60;99.90
16038;DHT22;8123;50.906;6.172;2023-02-13T10:20:04;6.50;99.90
16038;DHT22;8123;50.906;6.172;2023-02-13T10:22:39;6.50;99.90
16038;DHT22;8123;50.906;6.172;2023-02-13T10:25:14;6.60;99.90
16038;DHT22;8123;50.906;6.172;2023-02-13T10:27:48;6.90;99.90
16038;DHT22;8123;50.906;6.172;2023-02-13T10:33:06;7.00;99.90
16038;DHT22;8123;50.906;6.172;2023-02-13T10:38:21;6.80;99.90
16038;DHT22;8123;50.906;6.172;2023-02-13T10:46:50;6.90;99.90
16038;DHT22;8123;50.906;6.172;2023-02-13T10:49:36;6.90;99.90
16038;DHT22;8123;50.906;6.172;2023-02-13T10:52:25;7.00;99.90
16038;DHT22;8123;50.906;6.172;2023-02-13T10:55:49;7.10;99.90
16038;DHT22;8123;50.906;6.172;2023-02-13T11:03:21;7.30;99.90
16038;DHT22;8123;50.906;6.172;2023-02-13T11:05:47;7.60;99.90
16038;DHT22;8123;50.906;6.172;2023-02-13T11:08:42;7.40;99.90
16038;DHT22;8123;50.906;6.172;2023-02-13T11:11:29;7.40;99.90
16038;DHT22;8123;50.906;6.172;2023-02-13T11:14:16;7.50;99.90
16038;DHT22;8123;50.906;6.172;2023-02-13T11:19:38;7.80;99.90
16038;DHT22;8123;50.906;6.172;2023-02-13T11:22:08;7.80;99.90
16038;DHT22;8123;50.906;6.172;2023-02-13T11:24:36;7.50;99.90
16038;DHT22;8123;50.906;6.172;2023-02-13T11:27:06;7.60;99.90
16038;DHT22;8123;50.906;6.172;2023-02-13T11:29:35;7.70;99.90
16038;DHT22;8123;50.906;6.172;2023-02-13T11:32:06;7.70;99.90
16038;DHT22;8123;50.906;6.172;2023-02-13T11:34:36;7.80;99.90
16038;DHT22;8123;50.906;6.172;2023-02-13T11:39:38;7.80;99.90
16038;DHT22;8123;50.906;6.172;2023-02-13T11:44:40;8.00;99.90
16038;DHT22;8123;50.906;6.172;2023-02-13T11:47:07;8.10;99.90
16038;DHT22;8123;50.906;6.172;2023-02-13T11:49:38;8.10;99.90
16038;DHT22;8123;50.906;6.172;2023-02-13T11:52:24;8.10;99.90
16038;DHT22;8123;50.906;6.172;2023-02-13T11:54:59;8.20;99.90
16038;DHT22;8123;50.906;6.172;2023-02-13T11:57:32;8.20;99.90
16038;DHT22;8123;50.906;6.172;2023-02-13T12:00:01;8.30;99.90
16038;DHT22;8123;50.906;6.172;2023-02-13T12:02:47;8.30;99.90
16038;DHT22;8123;50.906;6.172;2023-02-13T12:05:16;8.30;99.90
16038;DHT22;8123;50.906;6.172;2023-02-13T12:07:44;8.30;99.90
16038;DHT22;8123;50.906;6.172;2023-02-13T12:12:56;8.40;99.90
16038;DHT22;8123;50.906;6.172;2023-02-13T12:15:28;8.40;99.90
16038;DHT22;8123;50.906;6.172;2023-02-13T12:18:22;8.50;99.90
16038;DHT22;8123;50.906;6.172;2023-02-13T12:31:49;8.80;99.90
16038;DHT22;8123;50.906;6.172;2023-02-13T12:34:36;8.90;99.90
16038;DHT22;8123;50.906;6.172;2023-02-13T12:46:07;9.10;99.90
16038;DHT22;8123;50.906;6.172;2023-02-13T12:49:01;9.10;99.90
16038;DHT22;8123;50.906;6.172;2023-02-13T12:54:26;9.30;99.90
16038;DHT22;8123;50.906;6.172;2023-02-13T13:02:22;9.40;99.90
16038;DHT22;8123;50.906;6.172;2023-02-13T13:10:14;9.50;99.90
16038;DHT22;8123;50.906;6.172;2023-02-13T13:23:46;9.80;99.90
16038;DHT22;8123;50.906;6.172;2023-02-13T13:28:58;9.70;99.90
16038;DHT22;8123;50.906;6.172;2023-02-13T13:31:25;9.70;99.90
16038;DHT22;8123;50.906;6.172;2023-02-13T13:33:55;9.70;99.90
16038;DHT22;8123;50.906;6.172;2023-02-13T13:36:41;9.70;99.90
16038;DHT22;8123;50.906;6.172;2023-02-13T13:42:16;9.80;99.90
16038;DHT22;8123;50.906;6.172;2023-02-13T13:50:38;9.90;99.90
16038;DHT22;8123;50.906;6.172;2023-02-13T13:53:18;9.90;99.90
16038;DHT22;8123;50.906;6.172;2023-02-13T13:58:40;9.90;99.90
16038;DHT22;8123;50.906;6.172;2023-02-13T14:01:25;9.80;99.90
16038;DHT22;8123;50.906;6.172;2023-02-13T14:03:55;9.80;99.90
16038;DHT22;8123;50.906;6.172;2023-02-13T14:09:36;9.90;99.90
16038;DHT22;8123;50.906;6.172;2023-02-13T14:14:54;9.90;99.90
16038;DHT22;8123;50.906;6.172;2023-02-13T14:23:04;10.00;99.90
16038;DHT22;8123;50.906;6.172;2023-02-13T14:25:30;10.00;99.90
16038;DHT22;8123;50.906;6.172;2023-02-13T14:27:59;10.10;99.90
16038;DHT22;8123;50.906;6.172;2023-02-13T14:30:35;10.20;99.90
16038;DHT22;8123;50.906;6.172;2023-02-13T14:33:05;9.90;99.90
16038;DHT22;8123;50.906;6.172;2023-02-13T14:35:34;10.30;99.90
16038;DHT22;8123;50.906;6.172;2023-02-13T14:38:06;10.30;99.90
16038;DHT22;8123;50.906;6.172;2023-02-13T14:40:49;10.30;99.90
16038;DHT22;8123;50.906;6.172;2023-02-13T14:45:53;10.30;99.90
16038;DHT22;8123;50.906;6.172;2023-02-13T14:48:21;10.30;99.90
16038;DHT22;8123;50.906;6.172;2023-02-13T14:50:51;10.20;99.90
16038;DHT22;8123;50.906;6.172;2023-02-13T14:53:27;10.20;99.90
16038;DHT22;8123;50.906;6.172;2023-02-13T14:56:12;10.30;99.90
16038;DHT22;8123;50.906;6.172;2023-02-13T14:59:14;10.30;99.90
16038;DHT22;8123;50.906;6.172;2023-02-13T15:02:03;10.30;99.90
16038;DHT22;8123;50.906;6.172;2023-02-13T15:04:39;10.30;99.90
16038;DHT22;8123;50.906;6.172;2023-02-13T15:07:13;10.30;99.90
16038;DHT22;8123;50.906;6.172;2023-02-13T15:09:45;10.20;99.90
16038;DHT22;8123;50.906;6.172;2023-02-13T15:12:28;10.10;99.90
16038;DHT22;8123;50.906;6.172;2023-02-13T15:14:54;10.30;99.90
16038;DHT22;8123;50.906;6.172;2023-02-13T15:17:32;10.40;99.90
16038;DHT22;8123;50.906;6.172;2023-02-13T15:20:25;10.50;99.90
16038;DHT22;8123;50.906;6.172;2023-02-13T15:22:52;10.40;99.90
16038;DHT22;8123;50.906;6.172;2023-02-13T15:25:30;10.50;99.90
16038;DHT22;8123;50.906;6.172;2023-02-13T15:27:58;10.70;99.90
16038;DHT22;8123;50.906;6.172;2023-02-13T15:30:28;10.80;99.90
16038;DHT22;8123;50.906;6.172;2023-02-13T15:32:55;10.90;99.90
16038;DHT22;8123;50.906;6.172;2023-02-13T15:35:24;10.90;99.90
16038;DHT22;8123;50.906;6.172;2023-02-13T15:37:50;10.60;99.90
16038;DHT22;8123;50.906;6.172;2023-02-13T15:40:26;10.80;99.90
16038;DHT22;8123;50.906;6.172;2023-02-13T15:42:53;10.90;99.90
16038;DHT22;8123;50.906;6.172;2023-02-13T15:45:21;10.90;99.90
16038;DHT22;8123;50.906;6.172;2023-02-13T15:47:48;10.80;99.90
16038;DHT22;8123;50.906;6.172;2023-02-13T15:50:30;10.80;99.90
16038;DHT22;8123;50.906;6.172;2023-02-13T15:52:59;10.70;99.90
16038;DHT22;8123;50.906;6.172;2023-02-13T15:55:29;10.60;99.90
16038;DHT22;8123;50.906;6.172;2023-02-13T15:57:57;10.60;99.90
16038;DHT22;8123;50.906;6.172;2023-02-13T16:00:35;10.70;99.90
16038;DHT22;8123;50.906;6.172;2023-02-13T16:03:03;10.80;99.90
16038;DHT22;8123;50.906;6.172;2023-02-13T16:05:36;10.70;99.90
16038;DHT22;8123;50.906;6.172;2023-02-13T16:08:19;10.70;99.90
16038;DHT22;8123;50.906;6.172;2023-02-13T16:10:48;10.70;99.90
16038;DHT22;8123;50.906;6.172;2023-02-13T16:13:15;10.60;99.90
16038;DHT22;8123;50.906;6.172;2023-02-13T16:15:42;10.60;99.90
16038;DHT22;8123;50.906;6.172;2023-02-13T16:18:18;10.60;99.90
16038;DHT22;8123;50.906;6.172;2023-02-13T16:20:44;10.50;99.90
16038;DHT22;8123;50.906;6.172;2023-02-13T16:23:16;10.40;99.90
16038;DHT22;8123;50.906;6.172;2023-02-13T16:25:46;10.20;99.90
16038;DHT22;8123;50.906;6.172;2023-02-13T16:33:22;9.90;99.90
16038;DHT22;8123;50.906;6.172;2023-02-13T16:38:36;9.50;99.90
16038;DHT22;8123;50.906;6.172;2023-02-13T16:41:03;9.40;99.90
16038;DHT22;8123;50.906;6.172;2023-02-13T16:43:59;9.20;99.90
16038;DHT22;8123;50.906;6.172;2023-02-13T16:46:28;9.00;99.90
16038;DHT22;8123;50.906;6.172;2023-02-13T16:56:45;8.60;99.90
16038;DHT22;8123;50.906;6.172;2023-02-13T16:59:37;8.50;99.90
16038;DHT22;8123;50.906;6.172;2023-02-13T17:02:37;8.30;99.90
16038;DHT22;8123;50.906;6.172;2023-02-13T17:07:53;8.10;99.90
16038;DHT22;8123;50.906;6.172;2023-02-13T17:12:57;7.80;99.90
16038;DHT22;8123;50.906;6.172;2023-02-13T17:15:25;7.80;99.90
16038;DHT22;8123;50.906;6.172;2023-02-13T17:17:52;7.60;99.90
16038;DHT22;8123;50.906;6.172;2023-02-13T17:20:26;7.60;99.90
16038;DHT22;8123;50.906;6.172;2023-02-13T17:22:54;7.50;99.90
16038;DHT22;8123;50.906;6.172;2023-02-13T17:25:40;7.40;99.90
16038;DHT22;8123;50.906;6.172;2023-02-13T17:28:18;7.30;99.90
16038;DHT22;8123;50.906;6.172;2023-02-13T17:30:46;7.20;99.90
16038;DHT22;8123;50.906;6.172;2023-02-13T17:33:16;7.10;99.90
16038;DHT22;8123;50.906;6.172;2023-02-13T17:35:42;7.00;99.90
16038;DHT22;8123;50.906;6.172;2023-02-13T17:38:09;7.30;99.90
16038;DHT22;8123;50.906;6.172;2023-02-13T17:40:35;6.90;99.90
16038;DHT22;8123;50.906;6.172;2023-02-13T17:43:02;6.80;99.90
16038;DHT22;8123;50.906;6.172;2023-02-13T17:45:29;6.80;99.90
16038;DHT22;8123;50.906;6.172;2023-02-13T17:47:55;6.70;99.90
16038;DHT22;8123;50.906;6.172;2023-02-13T17:50:25;6.70;99.90
16038;DHT22;8123;50.906;6.172;2023-02-13T17:52:51;6.60;99.90
16038;DHT22;8123;50.906;6.172;2023-02-13T17:55:25;6.80;99.90
16038;DHT22;8123;50.906;6.172;2023-02-13T17:57:52;6.40;99.90
16038;DHT22;8123;50.906;6.172;2023-02-13T18:00:19;6.30;99.90
16038;DHT22;8123;50.906;6.172;2023-02-13T18:02:46;6.30;99.90
16038;DHT22;8123;50.906;6.172;2023-02-13T18:05:13;6.20;99.90
16038;DHT22;8123;50.906;6.172;2023-02-13T18:07:39;6.20;99.90
16038;DHT22;8123;50.906;6.172;2023-02-13T18:10:17;6.30;99.90
16038;DHT22;8123;50.906;6.172;2023-02-13T18:12:43;6.10;99.90
16038;DHT22;8123;50.906;6.172;2023-02-13T18:15:10;6.30;99.90
16038;DHT22;8123;50.906;6.172;2023-02-13T18:17:36;6.00;99.90
16038;DHT22;8123;50.906;6.172;2023-02-13T18:20:04;5.90;99.90
16038;DHT22;8123;50.906;6.172;2023-02-13T18:22:29;5.90;99.90
16038;DHT22;8123;50.906;6.172;2023-02-13T18:24:55;6.00;99.90
16038;DHT22;8123;50.906;6.172;2023-02-13T18:27:21;5.80;99.90
16038;DHT22;8123;50.906;6.172;2023-02-13T18:29:47;5.90;99.90
16038;DHT22;8123;50.906;6.172;2023-02-13T18:32:13;5.80;99.90
16038;DHT22;8123;50.906;6.172;2023-02-13T18:34:39;5.90;99.90
16038;DHT22;8123;50.906;6.172;2023-02-13T18:37:05;5.80;99.90
16038;DHT22;8123;50.906;6.172;2023-02-13T18:39:31;6.00;99.90
16038;DHT22;8123;50.906;6.172;2023-02-13T18:41:57;5.70;99.90
16038;DHT22;8123;50.906;6.172;2023-02-13T18:44:22;5.70;99.90
16038;DHT22;8123;50.906;6.172;2023-02-13T18:46:48;5.60;99.90
16038;DHT22;8123;50.906;6.172;2023-02-13T18:49:14;5.90;99.90
16038;DHT22;8123;50.906;6.172;2023-02-13T18:51:40;5.50;99.90
16038;DHT22;8123;50.906;6.172;2023-02-13T18:54:07;5.50;99.90
16038;DHT22;8123;50.906;6.172;2023-02-13T18:56:33;5.80;99.90
16038;DHT22;8123;50.906;6.172;2023-02-13T18:58:58;5.50;99.90
16038;DHT22;8123;50.906;6.172;2023-02-13T19:01:24;5.40;99.90
16038;DHT22;8123;50.906;6.172;2023-02-13T19:03:51;5.40;99.90
16038;DHT22;8123;50.906;6.172;2023-02-13T19:06:19;5.40;99.90
16038;DHT22;8123;50.906;6.172;2023-02-13T19:08:45;5.60;99.90